sensor_id;sensor_type;location;lat;lon;timestamp;P1;durP1;ratioP1;P2;durP2;ratioP2
23586;SDS011;11971;51.148;4.104;2023-09-08T00:00:52;173.52;;;54.13;;
23586;SDS011;11971;51.148;4.104;2023-09-08T00:03:19;162.20;;;52.88;;
23586;SDS011;11971;51.148;4.104;2023-09-08T00:05:46;164.85;;;53.25;;
23586;SDS011;11971;51.148;4.104;2023-09-08T00:08:13;165.77;;;52.85;;
23586;SDS011;11971;51.148;4.104;2023-09-08T00:10:41;162.45;;;53.38;;
23586;SDS011;11971;51.148;4.104;2023-09-08T00:13:08;166.70;;;54.05;;
23586;SDS011;11971;51.148;4.104;2023-09-08T00:15:35;160.85;;;51.75;;
23586;SDS011;11971;51.148;4.104;2023-09-08T00:18:02;166.30;;;54.33;;
23586;SDS011;11971;51.148;4.104;2023-09-08T00:20:29;168.48;;;55.50;;
23586;SDS011;11971;51.148;4.104;2023-09-08T00:22:56;169.07;;;56.20;;
23586;SDS011;11971;51.148;4.104;2023-09-08T00:25:23;171.13;;;56.80;;
23586;SDS011;11971;51.148;4.104;2023-09-08T00:27:51;173.23;;;57.42;;
23586;SDS011;11971;51.148;4.104;2023-09-08T00:30:18;169.38;;;56.53;;
23586;SDS011;11971;51.148;4.104;2023-09-08T00:32:44;170.95;;;56.97;;
23586;SDS011;11971;51.148;4.104;2023-09-08T00:35:11;167.73;;;55.60;;
23586;SDS011;11971;51.148;4.104;2023-09-08T00:37:39;164.50;;;54.65;;
23586;SDS011;11971;51.148;4.104;2023-09-08T00:40:06;170.18;;;54.83;;
23586;SDS011;11971;51.148;4.104;2023-09-08T00:42:34;164.57;;;54.70;;
23586;SDS011;11971;51.148;4.104;2023-09-08T00:45:02;166.68;;;54.67;;
23586;SDS011;11971;51.148;4.104;2023-09-08T00:49:56;165.77;;;54.55;;
23586;SDS011;11971;51.148;4.104;2023-09-08T00:52:23;168.10;;;55.55;;
23586;SDS011;11971;51.148;4.104;2023-09-08T00:54:56;170.57;;;55.88;;
23586;SDS011;11971;51.148;4.104;2023-09-08T00:57:23;169.57;;;56.85;;
23586;SDS011;11971;51.148;4.104;2023-09-08T00:59:49;167.50;;;55.97;;
23586;SDS011;11971;51.148;4.104;2023-09-08T01:02:17;169.63;;;56.00;;
23586;SDS011;11971;51.148;4.104;2023-09-08T01:04:44;173.90;;;57.08;;
23586;SDS011;11971;51.148;4.104;2023-09-08T01:07:11;170.77;;;57.42;;
23586;SDS011;11971;51.148;4.104;2023-09-08T01:09:38;172.07;;;57.08;;
23586;SDS011;11971;51.148;4.104;2023-09-08T01:12:05;171.55;;;57.72;;
23586;SDS011;11971;51.148;4.104;2023-09-08T01:14:33;173.85;;;58.47;;
23586;SDS011;11971;51.148;4.104;2023-09-08T01:16:59;174.32;;;59.58;;
23586;SDS011;11971;51.148;4.104;2023-09-08T01:19:28;173.98;;;59.95;;
23586;SDS011;11971;51.148;4.104;2023-09-08T01:25:08;175.05;;;59.90;;
23586;SDS011;11971;51.148;4.104;2023-09-08T01:27:40;178.85;;;58.30;;
23586;SDS011;11971;51.148;4.104;2023-09-08T01:30:10;176.60;;;59.13;;
23586;SDS011;11971;51.148;4.104;2023-09-08T01:32:38;174.07;;;59.05;;
23586;SDS011;11971;51.148;4.104;2023-09-08T01:35:06;174.43;;;59.33;;
23586;SDS011;11971;51.148;4.104;2023-09-08T01:37:33;172.75;;;58.55;;
23586;SDS011;11971;51.148;4.104;2023-09-08T01:40:00;173.70;;;57.58;;
23586;SDS011;11971;51.148;4.104;2023-09-08T01:42:28;173.32;;;57.53;;
23586;SDS011;11971;51.148;4.104;2023-09-08T01:44:55;175.95;;;56.88;;
23586;SDS011;11971;51.148;4.104;2023-09-08T01:47:21;174.60;;;56.83;;
23586;SDS011;11971;51.148;4.104;2023-09-08T01:49:48;174.82;;;57.50;;
23586;SDS011;11971;51.148;4.104;2023-09-08T01:52:16;168.35;;;55.70;;
23586;SDS011;11971;51.148;4.104;2023-09-08T01:54:43;167.15;;;55.83;;
23586;SDS011;11971;51.148;4.104;2023-09-08T01:57:09;174.82;;;55.88;;
23586;SDS011;11971;51.148;4.104;2023-09-08T01:59:40;173.55;;;56.80;;
23586;SDS011;11971;51.148;4.104;2023-09-08T02:02:06;179.88;;;57.55;;
23586;SDS011;11971;51.148;4.104;2023-09-08T02:04:33;174.32;;;57.65;;
23586;SDS011;11971;51.148;4.104;2023-09-08T02:07:00;179.75;;;59.05;;
23586;SDS011;11971;51.148;4.104;2023-09-08T02:09:31;178.10;;;58.53;;
23586;SDS011;11971;51.148;4.104;2023-09-08T02:11:59;175.95;;;59.13;;
23586;SDS011;11971;51.148;4.104;2023-09-08T02:14:25;176.95;;;58.95;;
23586;SDS011;11971;51.148;4.104;2023-09-08T02:16:54;172.52;;;57.75;;
23586;SDS011;11971;51.148;4.104;2023-09-08T02:19:21;174.07;;;58.05;;
23586;SDS011;11971;51.148;4.104;2023-09-08T02:21:48;176.43;;;57.33;;
23586;SDS011;11971;51.148;4.104;2023-09-08T02:24:15;172.45;;;58.33;;
23586;SDS011;11971;51.148;4.104;2023-09-08T02:26:42;170.60;;;57.92;;
23586;SDS011;11971;51.148;4.104;2023-09-08T02:29:09;178.32;;;59.70;;
23586;SDS011;11971;51.148;4.104;2023-09-08T02:31:35;176.13;;;59.58;;
23586;SDS011;11971;51.148;4.104;2023-09-08T02:34:04;172.25;;;58.75;;
23586;SDS011;11971;51.148;4.104;2023-09-08T02:36:30;174.53;;;59.07;;
23586;SDS011;11971;51.148;4.104;2023-09-08T02:38:57;170.43;;;57.58;;
23586;SDS011;11971;51.148;4.104;2023-09-08T02:41:24;169.90;;;57.05;;
23586;SDS011;11971;51.148;4.104;2023-09-08T02:43:51;172.10;;;57.40;;
23586;SDS011;11971;51.148;4.104;2023-09-08T02:46:17;169.15;;;55.88;;
23586;SDS011;11971;51.148;4.104;2023-09-08T02:48:44;171.60;;;56.47;;
23586;SDS011;11971;51.148;4.104;2023-09-08T02:51:13;176.05;;;56.28;;
23586;SDS011;11971;51.148;4.104;2023-09-08T02:53:39;170.88;;;54.35;;
23586;SDS011;11971;51.148;4.104;2023-09-08T02:56:06;165.52;;;54.35;;
23586;SDS011;11971;51.148;4.104;2023-09-08T02:58:34;175.07;;;56.53;;
23586;SDS011;11971;51.148;4.104;2023-09-08T03:01:09;175.07;;;57.08;;
23586;SDS011;11971;51.148;4.104;2023-09-08T03:03:37;172.55;;;57.42;;
23586;SDS011;11971;51.148;4.104;2023-09-08T03:06:03;171.02;;;56.60;;
23586;SDS011;11971;51.148;4.104;2023-09-08T03:08:32;170.60;;;57.20;;
23586;SDS011;11971;51.148;4.104;2023-09-08T03:10:58;175.68;;;56.03;;
23586;SDS011;11971;51.148;4.104;2023-09-08T03:13:25;178.70;;;58.67;;
23586;SDS011;11971;51.148;4.104;2023-09-08T03:15:53;173.87;;;58.10;;
23586;SDS011;11971;51.148;4.104;2023-09-08T03:18:20;174.15;;;57.92;;
23586;SDS011;11971;51.148;4.104;2023-09-08T03:20:48;173.02;;;57.40;;
23586;SDS011;11971;51.148;4.104;2023-09-08T03:23:14;171.48;;;56.90;;
23586;SDS011;11971;51.148;4.104;2023-09-08T03:25:43;165.05;;;54.42;;
23586;SDS011;11971;51.148;4.104;2023-09-08T03:28:10;158.20;;;52.15;;
23586;SDS011;11971;51.148;4.104;2023-09-08T03:30:36;157.68;;;48.33;;
23586;SDS011;11971;51.148;4.104;2023-09-08T03:33:03;155.00;;;49.80;;
23586;SDS011;11971;51.148;4.104;2023-09-08T03:35:30;161.20;;;53.15;;
23586;SDS011;11971;51.148;4.104;2023-09-08T03:37:57;163.48;;;53.83;;
23586;SDS011;11971;51.148;4.104;2023-09-08T03:40:23;165.05;;;54.45;;
23586;SDS011;11971;51.148;4.104;2023-09-08T03:42:52;169.00;;;54.63;;
23586;SDS011;11971;51.148;4.104;2023-09-08T03:45:18;166.35;;;54.13;;
23586;SDS011;11971;51.148;4.104;2023-09-08T03:47:45;166.63;;;54.67;;
23586;SDS011;11971;51.148;4.104;2023-09-08T03:50:12;164.68;;;55.35;;
23586;SDS011;11971;51.148;4.104;2023-09-08T03:52:39;160.45;;;52.30;;
23586;SDS011;11971;51.148;4.104;2023-09-08T03:55:06;172.10;;;53.22;;
23586;SDS011;11971;51.148;4.104;2023-09-08T03:57:33;165.88;;;55.88;;
23586;SDS011;11971;51.148;4.104;2023-09-08T04:00:01;164.40;;;54.85;;
23586;SDS011;11971;51.148;4.104;2023-09-08T04:04:55;166.00;;;53.30;;
23586;SDS011;11971;51.148;4.104;2023-09-08T04:07:22;165.50;;;54.30;;
23586;SDS011;11971;51.148;4.104;2023-09-08T04:09:48;167.35;;;55.88;;
23586;SDS011;11971;51.148;4.104;2023-09-08T04:12:15;180.27;;;57.90;;
23586;SDS011;11971;51.148;4.104;2023-09-08T04:14:42;174.20;;;58.75;;
23586;SDS011;11971;51.148;4.104;2023-09-08T04:17:10;177.45;;;59.75;;
23586;SDS011;11971;51.148;4.104;2023-09-08T04:19:37;175.98;;;58.17;;
23586;SDS011;11971;51.148;4.104;2023-09-08T04:22:03;171.95;;;57.47;;
23586;SDS011;11971;51.148;4.104;2023-09-08T04:24:34;175.68;;;58.95;;
23586;SDS011;11971;51.148;4.104;2023-09-08T04:27:01;181.10;;;61.97;;
23586;SDS011;11971;51.148;4.104;2023-09-08T04:29:28;180.90;;;61.50;;
23586;SDS011;11971;51.148;4.104;2023-09-08T04:31:55;177.55;;;62.40;;
23586;SDS011;11971;51.148;4.104;2023-09-08T04:34:23;183.65;;;60.92;;
23586;SDS011;11971;51.148;4.104;2023-09-08T04:36:50;173.33;;;59.43;;
23586;SDS011;11971;51.148;4.104;2023-09-08T04:39:16;176.52;;;58.58;;
23586;SDS011;11971;51.148;4.104;2023-09-08T04:41:43;164.40;;;55.78;;
23586;SDS011;11971;51.148;4.104;2023-09-08T04:44:10;171.43;;;57.67;;
23586;SDS011;11971;51.148;4.104;2023-09-08T04:46:36;173.52;;;59.05;;
23586;SDS011;11971;51.148;4.104;2023-09-08T04:49:03;172.10;;;58.42;;
23586;SDS011;11971;51.148;4.104;2023-09-08T04:51:31;174.98;;;59.70;;
23586;SDS011;11971;51.148;4.104;2023-09-08T04:53:58;171.50;;;58.22;;
23586;SDS011;11971;51.148;4.104;2023-09-08T04:56:25;172.93;;;60.13;;
23586;SDS011;11971;51.148;4.104;2023-09-08T04:58:52;169.95;;;58.17;;
23586;SDS011;11971;51.148;4.104;2023-09-08T05:01:20;167.70;;;57.03;;
23586;SDS011;11971;51.148;4.104;2023-09-08T05:03:46;171.80;;;57.83;;
23586;SDS011;11971;51.148;4.104;2023-09-08T05:06:13;178.15;;;58.13;;
23586;SDS011;11971;51.148;4.104;2023-09-08T05:08:41;165.98;;;55.67;;
23586;SDS011;11971;51.148;4.104;2023-09-08T05:11:09;167.10;;;56.05;;
23586;SDS011;11971;51.148;4.104;2023-09-08T05:13:36;166.05;;;55.83;;
23586;SDS011;11971;51.148;4.104;2023-09-08T05:16:02;167.10;;;56.10;;
23586;SDS011;11971;51.148;4.104;2023-09-08T05:18:36;168.70;;;57.10;;
23586;SDS011;11971;51.148;4.104;2023-09-08T05:21:03;174.30;;;59.20;;
23586;SDS011;11971;51.148;4.104;2023-09-08T05:23:29;173.43;;;58.85;;
23586;SDS011;11971;51.148;4.104;2023-09-08T05:25:58;178.43;;;60.60;;
23586;SDS011;11971;51.148;4.104;2023-09-08T05:28:24;175.25;;;58.67;;
23586;SDS011;11971;51.148;4.104;2023-09-08T05:30:51;177.93;;;59.13;;
23586;SDS011;11971;51.148;4.104;2023-09-08T05:33:18;174.52;;;59.70;;
23586;SDS011;11971;51.148;4.104;2023-09-08T05:35:45;176.50;;;58.03;;
23586;SDS011;11971;51.148;4.104;2023-09-08T05:38:12;170.40;;;58.13;;
23586;SDS011;11971;51.148;4.104;2023-09-08T05:40:39;175.73;;;57.28;;
23586;SDS011;11971;51.148;4.104;2023-09-08T05:43:07;176.70;;;58.72;;
23586;SDS011;11971;51.148;4.104;2023-09-08T05:45:34;175.32;;;57.97;;
23586;SDS011;11971;51.148;4.104;2023-09-08T05:48:01;182.23;;;59.22;;
23586;SDS011;11971;51.148;4.104;2023-09-08T05:50:28;181.75;;;59.53;;
23586;SDS011;11971;51.148;4.104;2023-09-08T05:52:54;173.07;;;57.40;;
23586;SDS011;11971;51.148;4.104;2023-09-08T05:55:21;173.63;;;58.45;;
23586;SDS011;11971;51.148;4.104;2023-09-08T05:57:48;175.30;;;58.67;;
23586;SDS011;11971;51.148;4.104;2023-09-08T06:00:16;173.57;;;57.47;;
23586;SDS011;11971;51.148;4.104;2023-09-08T06:02:44;173.50;;;58.22;;
23586;SDS011;11971;51.148;4.104;2023-09-08T06:05:11;178.38;;;58.70;;
23586;SDS011;11971;51.148;4.104;2023-09-08T06:07:38;183.63;;;60.25;;
23586;SDS011;11971;51.148;4.104;2023-09-08T06:10:05;189.98;;;61.42;;
23586;SDS011;11971;51.148;4.104;2023-09-08T06:12:32;183.77;;;62.13;;
23586;SDS011;11971;51.148;4.104;2023-09-08T06:14:59;179.43;;;62.80;;
23586;SDS011;11971;51.148;4.104;2023-09-08T06:17:27;180.13;;;60.78;;
23586;SDS011;11971;51.148;4.104;2023-09-08T06:19:54;178.45;;;61.63;;
23586;SDS011;11971;51.148;4.104;2023-09-08T06:22:21;177.20;;;61.20;;
23586;SDS011;11971;51.148;4.104;2023-09-08T06:24:48;186.88;;;61.70;;
23586;SDS011;11971;51.148;4.104;2023-09-08T06:27:14;178.77;;;61.42;;
23586;SDS011;11971;51.148;4.104;2023-09-08T06:29:41;180.98;;;61.13;;
23586;SDS011;11971;51.148;4.104;2023-09-08T06:32:09;172.60;;;59.72;;
23586;SDS011;11971;51.148;4.104;2023-09-08T06:34:37;174.95;;;58.60;;
23586;SDS011;11971;51.148;4.104;2023-09-08T06:37:04;171.52;;;58.38;;
23586;SDS011;11971;51.148;4.104;2023-09-08T06:39:31;176.55;;;59.63;;
23586;SDS011;11971;51.148;4.104;2023-09-08T06:41:57;171.93;;;57.75;;
23586;SDS011;11971;51.148;4.104;2023-09-08T06:44:24;176.25;;;59.22;;
23586;SDS011;11971;51.148;4.104;2023-09-08T06:46:51;177.00;;;57.00;;
23586;SDS011;11971;51.148;4.104;2023-09-08T06:49:18;170.20;;;55.65;;
23586;SDS011;11971;51.148;4.104;2023-09-08T06:51:46;167.25;;;55.97;;
23586;SDS011;11971;51.148;4.104;2023-09-08T06:54:14;168.23;;;55.50;;
23586;SDS011;11971;51.148;4.104;2023-09-08T06:56:41;168.65;;;54.50;;
23586;SDS011;11971;51.148;4.104;2023-09-08T06:59:07;166.57;;;55.17;;
23586;SDS011;11971;51.148;4.104;2023-09-08T07:01:34;169.25;;;55.72;;
23586;SDS011;11971;51.148;4.104;2023-09-08T07:04:01;167.57;;;53.78;;
23586;SDS011;11971;51.148;4.104;2023-09-08T07:06:28;164.32;;;53.65;;
23586;SDS011;11971;51.148;4.104;2023-09-08T07:08:56;163.77;;;53.55;;
23586;SDS011;11971;51.148;4.104;2023-09-08T07:11:23;162.38;;;53.08;;
23586;SDS011;11971;51.148;4.104;2023-09-08T07:13:50;173.45;;;53.50;;
23586;SDS011;11971;51.148;4.104;2023-09-08T07:16:16;162.23;;;52.67;;
23586;SDS011;11971;51.148;4.104;2023-09-08T07:18:43;169.68;;;53.15;;
23586;SDS011;11971;51.148;4.104;2023-09-08T07:21:10;170.45;;;53.00;;
23586;SDS011;11971;51.148;4.104;2023-09-08T07:23:37;163.80;;;52.20;;
23586;SDS011;11971;51.148;4.104;2023-09-08T07:26:05;162.88;;;52.40;;
23586;SDS011;11971;51.148;4.104;2023-09-08T07:28:32;161.27;;;51.60;;
23586;SDS011;11971;51.148;4.104;2023-09-08T07:31:02;165.90;;;51.67;;
23586;SDS011;11971;51.148;4.104;2023-09-08T07:33:29;166.73;;;51.58;;
23586;SDS011;11971;51.148;4.104;2023-09-08T07:35:56;162.90;;;51.72;;
23586;SDS011;11971;51.148;4.104;2023-09-08T07:38:23;167.52;;;51.05;;
23586;SDS011;11971;51.148;4.104;2023-09-08T07:40:50;169.27;;;51.90;;
23586;SDS011;11971;51.148;4.104;2023-09-08T07:43:19;162.90;;;50.78;;
23586;SDS011;11971;51.148;4.104;2023-09-08T07:45:46;161.70;;;50.08;;
23586;SDS011;11971;51.148;4.104;2023-09-08T07:48:12;161.10;;;50.20;;
23586;SDS011;11971;51.148;4.104;2023-09-08T07:50:39;167.98;;;52.55;;
23586;SDS011;11971;51.148;4.104;2023-09-08T07:53:06;159.65;;;50.65;;
23586;SDS011;11971;51.148;4.104;2023-09-08T07:55:32;168.13;;;51.28;;
23586;SDS011;11971;51.148;4.104;2023-09-08T07:58:00;164.43;;;50.90;;
23586;SDS011;11971;51.148;4.104;2023-09-08T08:00:30;163.38;;;50.72;;
23586;SDS011;11971;51.148;4.104;2023-09-08T08:02:57;164.98;;;51.15;;
23586;SDS011;11971;51.148;4.104;2023-09-08T08:05:24;163.65;;;51.65;;
23586;SDS011;11971;51.148;4.104;2023-09-08T08:07:51;163.32;;;52.05;;
23586;SDS011;11971;51.148;4.104;2023-09-08T08:10:18;162.85;;;51.40;;
23586;SDS011;11971;51.148;4.104;2023-09-08T08:12:45;162.27;;;51.60;;
23586;SDS011;11971;51.148;4.104;2023-09-08T08:15:12;165.13;;;50.70;;
23586;SDS011;11971;51.148;4.104;2023-09-08T08:17:40;162.75;;;50.65;;
23586;SDS011;11971;51.148;4.104;2023-09-08T08:20:07;164.48;;;51.70;;
23586;SDS011;11971;51.148;4.104;2023-09-08T08:22:34;165.95;;;51.05;;
23586;SDS011;11971;51.148;4.104;2023-09-08T08:25:02;164.23;;;51.65;;
23586;SDS011;11971;51.148;4.104;2023-09-08T08:27:29;167.63;;;51.17;;
23586;SDS011;11971;51.148;4.104;2023-09-08T08:29:56;162.20;;;51.05;;
23586;SDS011;11971;51.148;4.104;2023-09-08T08:32:24;163.10;;;51.73;;
23586;SDS011;11971;51.148;4.104;2023-09-08T08:34:53;166.60;;;51.00;;
23586;SDS011;11971;51.148;4.104;2023-09-08T08:37:20;168.25;;;51.80;;
23586;SDS011;11971;51.148;4.104;2023-09-08T08:39:46;164.50;;;51.92;;
23586;SDS011;11971;51.148;4.104;2023-09-08T08:42:13;166.10;;;51.47;;
23586;SDS011;11971;51.148;4.104;2023-09-08T08:44:40;161.63;;;51.13;;
23586;SDS011;11971;51.148;4.104;2023-09-08T08:47:07;163.43;;;50.90;;
23586;SDS011;11971;51.148;4.104;2023-09-08T08:49:34;166.35;;;51.42;;
23586;SDS011;11971;51.148;4.104;2023-09-08T08:52:05;164.95;;;50.83;;
23586;SDS011;11971;51.148;4.104;2023-09-08T08:54:34;167.88;;;50.83;;
23586;SDS011;11971;51.148;4.104;2023-09-08T08:57:02;164.05;;;51.45;;
23586;SDS011;11971;51.148;4.104;2023-09-08T08:59:29;163.57;;;50.80;;
23586;SDS011;11971;51.148;4.104;2023-09-08T09:01:56;163.38;;;51.25;;
23586;SDS011;11971;51.148;4.104;2023-09-08T09:04:23;164.85;;;51.38;;
23586;SDS011;11971;51.148;4.104;2023-09-08T09:06:50;163.45;;;51.08;;
23586;SDS011;11971;51.148;4.104;2023-09-08T09:09:20;162.55;;;50.72;;
23586;SDS011;11971;51.148;4.104;2023-09-08T09:11:48;165.65;;;51.63;;
23586;SDS011;11971;51.148;4.104;2023-09-08T09:14:15;164.48;;;51.90;;
23586;SDS011;11971;51.148;4.104;2023-09-08T09:16:42;164.45;;;51.03;;
23586;SDS011;11971;51.148;4.104;2023-09-08T09:19:10;167.07;;;50.95;;
23586;SDS011;11971;51.148;4.104;2023-09-08T09:21:46;165.75;;;51.15;;
23586;SDS011;11971;51.148;4.104;2023-09-08T09:24:14;167.32;;;51.58;;
23586;SDS011;11971;51.148;4.104;2023-09-08T09:26:43;163.13;;;50.65;;
23586;SDS011;11971;51.148;4.104;2023-09-08T09:29:11;165.50;;;51.03;;
23586;SDS011;11971;51.148;4.104;2023-09-08T09:31:41;165.10;;;50.60;;
23586;SDS011;11971;51.148;4.104;2023-09-08T09:34:17;164.90;;;50.15;;
23586;SDS011;11971;51.148;4.104;2023-09-08T09:36:45;164.70;;;50.10;;
23586;SDS011;11971;51.148;4.104;2023-09-08T09:39:13;163.77;;;51.05;;
23586;SDS011;11971;51.148;4.104;2023-09-08T09:41:40;168.52;;;50.83;;
23586;SDS011;11971;51.148;4.104;2023-09-08T09:44:09;167.02;;;50.92;;
23586;SDS011;11971;51.148;4.104;2023-09-08T09:46:37;169.60;;;51.15;;
23586;SDS011;11971;51.148;4.104;2023-09-08T09:49:03;169.98;;;51.65;;
23586;SDS011;11971;51.148;4.104;2023-09-08T09:51:30;170.23;;;52.63;;
23586;SDS011;11971;51.148;4.104;2023-09-08T09:53:57;166.73;;;51.20;;
23586;SDS011;11971;51.148;4.104;2023-09-08T09:56:25;166.70;;;51.63;;
23586;SDS011;11971;51.148;4.104;2023-09-08T09:58:52;164.80;;;50.53;;
23586;SDS011;11971;51.148;4.104;2023-09-08T10:01:21;169.75;;;50.95;;
23586;SDS011;11971;51.148;4.104;2023-09-08T10:03:50;167.43;;;51.28;;
23586;SDS011;11971;51.148;4.104;2023-09-08T10:06:18;165.57;;;51.00;;
23586;SDS011;11971;51.148;4.104;2023-09-08T10:08:45;169.57;;;51.35;;
23586;SDS011;11971;51.148;4.104;2023-09-08T10:11:13;166.38;;;51.47;;
23586;SDS011;11971;51.148;4.104;2023-09-08T10:13:42;168.27;;;50.50;;
23586;SDS011;11971;51.148;4.104;2023-09-08T10:16:13;164.85;;;50.05;;
23586;SDS011;11971;51.148;4.104;2023-09-08T10:18:44;165.23;;;50.70;;
23586;SDS011;11971;51.148;4.104;2023-09-08T10:21:12;166.57;;;50.45;;
23586;SDS011;11971;51.148;4.104;2023-09-08T10:23:40;166.48;;;50.75;;
23586;SDS011;11971;51.148;4.104;2023-09-08T10:26:09;164.30;;;50.63;;
23586;SDS011;11971;51.148;4.104;2023-09-08T10:28:36;164.88;;;51.17;;
23586;SDS011;11971;51.148;4.104;2023-09-08T10:31:03;165.15;;;50.58;;
23586;SDS011;11971;51.148;4.104;2023-09-08T10:33:31;169.10;;;51.10;;
23586;SDS011;11971;51.148;4.104;2023-09-08T10:35:59;169.93;;;50.90;;
23586;SDS011;11971;51.148;4.104;2023-09-08T10:38:28;165.13;;;50.75;;
23586;SDS011;11971;51.148;4.104;2023-09-08T10:43:55;164.43;;;50.90;;
23586;SDS011;11971;51.148;4.104;2023-09-08T10:46:23;165.05;;;50.53;;
23586;SDS011;11971;51.148;4.104;2023-09-08T10:48:50;164.23;;;50.40;;
23586;SDS011;11971;51.148;4.104;2023-09-08T10:51:21;165.52;;;50.58;;
23586;SDS011;11971;51.148;4.104;2023-09-08T10:53:48;165.57;;;50.22;;
23586;SDS011;11971;51.148;4.104;2023-09-08T10:56:16;169.80;;;50.80;;
23586;SDS011;11971;51.148;4.104;2023-09-08T10:58:43;164.52;;;50.70;;
23586;SDS011;11971;51.148;4.104;2023-09-08T11:01:15;165.52;;;50.83;;
23586;SDS011;11971;51.148;4.104;2023-09-08T11:03:43;165.80;;;49.77;;
23586;SDS011;11971;51.148;4.104;2023-09-08T11:06:14;165.57;;;50.55;;
23586;SDS011;11971;51.148;4.104;2023-09-08T11:08:43;165.95;;;51.20;;
23586;SDS011;11971;51.148;4.104;2023-09-08T11:11:14;164.70;;;50.45;;
23586;SDS011;11971;51.148;4.104;2023-09-08T11:13:42;164.25;;;50.33;;
23586;SDS011;11971;51.148;4.104;2023-09-08T11:16:11;164.98;;;50.20;;
23586;SDS011;11971;51.148;4.104;2023-09-08T11:18:44;172.85;;;51.15;;
23586;SDS011;11971;51.148;4.104;2023-09-08T11:21:11;170.32;;;51.05;;
23586;SDS011;11971;51.148;4.104;2023-09-08T11:23:40;166.00;;;51.35;;
23586;SDS011;11971;51.148;4.104;2023-09-08T11:26:09;168.43;;;50.55;;
23586;SDS011;11971;51.148;4.104;2023-09-08T11:28:35;163.98;;;51.42;;
23586;SDS011;11971;51.148;4.104;2023-09-08T11:31:02;169.00;;;50.63;;
23586;SDS011;11971;51.148;4.104;2023-09-08T11:33:32;170.93;;;51.50;;
23586;SDS011;11971;51.148;4.104;2023-09-08T11:36:10;164.63;;;51.38;;
23586;SDS011;11971;51.148;4.104;2023-09-08T11:38:38;167.95;;;51.10;;
23586;SDS011;11971;51.148;4.104;2023-09-08T11:41:07;164.85;;;51.45;;
23586;SDS011;11971;51.148;4.104;2023-09-08T11:43:34;166.57;;;50.55;;
23586;SDS011;11971;51.148;4.104;2023-09-08T11:46:00;164.40;;;50.33;;
23586;SDS011;11971;51.148;4.104;2023-09-08T11:48:29;167.52;;;51.72;;
23586;SDS011;11971;51.148;4.104;2023-09-08T11:50:56;166.80;;;52.15;;
23586;SDS011;11971;51.148;4.104;2023-09-08T11:53:24;167.68;;;51.10;;
23586;SDS011;11971;51.148;4.104;2023-09-08T11:55:52;175.07;;;50.65;;
23586;SDS011;11971;51.148;4.104;2023-09-08T11:58:20;165.38;;;51.35;;
23586;SDS011;11971;51.148;4.104;2023-09-08T12:03:14;165.43;;;51.28;;
23586;SDS011;11971;51.148;4.104;2023-09-08T12:05:42;168.18;;;51.58;;
23586;SDS011;11971;51.148;4.104;2023-09-08T12:08:10;165.30;;;51.05;;
23586;SDS011;11971;51.148;4.104;2023-09-08T12:10:37;166.68;;;51.72;;
23586;SDS011;11971;51.148;4.104;2023-09-08T12:13:04;175.05;;;51.45;;
23586;SDS011;11971;51.148;4.104;2023-09-08T12:15:33;165.63;;;51.55;;
23586;SDS011;11971;51.148;4.104;2023-09-08T12:18:01;171.07;;;51.15;;
23586;SDS011;11971;51.148;4.104;2023-09-08T12:20:29;165.35;;;51.47;;
23586;SDS011;11971;51.148;4.104;2023-09-08T12:22:57;168.20;;;51.08;;
23586;SDS011;11971;51.148;4.104;2023-09-08T12:25:25;168.18;;;52.15;;
23586;SDS011;11971;51.148;4.104;2023-09-08T12:27:53;173.02;;;52.25;;
23586;SDS011;11971;51.148;4.104;2023-09-08T12:30:21;167.50;;;53.30;;
23586;SDS011;11971;51.148;4.104;2023-09-08T12:32:56;169.00;;;53.35;;
23586;SDS011;11971;51.148;4.104;2023-09-08T12:35:24;169.88;;;53.10;;
23586;SDS011;11971;51.148;4.104;2023-09-08T12:37:53;164.77;;;52.47;;
23586;SDS011;11971;51.148;4.104;2023-09-08T12:40:23;170.55;;;53.05;;
23586;SDS011;11971;51.148;4.104;2023-09-08T12:42:53;165.63;;;52.67;;
23586;SDS011;11971;51.148;4.104;2023-09-08T12:45:21;167.75;;;51.88;;
23586;SDS011;11971;51.148;4.104;2023-09-08T12:47:48;167.23;;;52.60;;
23586;SDS011;11971;51.148;4.104;2023-09-08T12:50:16;166.00;;;51.65;;
23586;SDS011;11971;51.148;4.104;2023-09-08T12:55:10;165.68;;;52.42;;
23586;SDS011;11971;51.148;4.104;2023-09-08T12:57:36;172.10;;;52.75;;
23586;SDS011;11971;51.148;4.104;2023-09-08T13:00:04;169.18;;;52.85;;
23586;SDS011;11971;51.148;4.104;2023-09-08T13:02:32;168.52;;;52.10;;
23586;SDS011;11971;51.148;4.104;2023-09-08T13:04:59;166.77;;;51.78;;
23586;SDS011;11971;51.148;4.104;2023-09-08T13:07:28;166.13;;;52.38;;
23586;SDS011;11971;51.148;4.104;2023-09-08T13:12:21;165.65;;;51.92;;
23586;SDS011;11971;51.148;4.104;2023-09-08T13:14:48;167.07;;;51.42;;
23586;SDS011;11971;51.148;4.104;2023-09-08T13:17:15;162.68;;;51.30;;
23586;SDS011;11971;51.148;4.104;2023-09-08T13:19:41;165.60;;;51.53;;
23586;SDS011;11971;51.148;4.104;2023-09-08T13:22:08;167.35;;;51.53;;
23586;SDS011;11971;51.148;4.104;2023-09-08T13:24:36;167.18;;;51.75;;
23586;SDS011;11971;51.148;4.104;2023-09-08T13:27:04;165.35;;;51.65;;
23586;SDS011;11971;51.148;4.104;2023-09-08T13:29:31;168.60;;;51.35;;
23586;SDS011;11971;51.148;4.104;2023-09-08T13:31:58;167.20;;;51.78;;
23586;SDS011;11971;51.148;4.104;2023-09-08T13:34:24;163.57;;;51.92;;
23586;SDS011;11971;51.148;4.104;2023-09-08T13:36:51;166.27;;;51.75;;
23586;SDS011;11971;51.148;4.104;2023-09-08T13:39:18;171.50;;;51.55;;
23586;SDS011;11971;51.148;4.104;2023-09-08T13:41:47;171.52;;;51.65;;
23586;SDS011;11971;51.148;4.104;2023-09-08T13:44:15;165.35;;;51.15;;
23586;SDS011;11971;51.148;4.104;2023-09-08T13:46:42;163.03;;;50.93;;
23586;SDS011;11971;51.148;4.104;2023-09-08T13:49:09;168.85;;;51.70;;
23586;SDS011;11971;51.148;4.104;2023-09-08T13:51:36;164.32;;;51.30;;
23586;SDS011;11971;51.148;4.104;2023-09-08T13:54:03;166.52;;;50.47;;
23586;SDS011;11971;51.148;4.104;2023-09-08T13:56:30;164.80;;;51.40;;
23586;SDS011;11971;51.148;4.104;2023-09-08T13:58:58;167.55;;;51.30;;
23586;SDS011;11971;51.148;4.104;2023-09-08T14:01:25;162.43;;;51.22;;
23586;SDS011;11971;51.148;4.104;2023-09-08T14:03:54;165.23;;;51.28;;
23586;SDS011;11971;51.148;4.104;2023-09-08T14:06:21;164.15;;;51.50;;
23586;SDS011;11971;51.148;4.104;2023-09-08T14:08:48;168.00;;;51.10;;
23586;SDS011;11971;51.148;4.104;2023-09-08T14:11:15;168.20;;;51.65;;
23586;SDS011;11971;51.148;4.104;2023-09-08T14:13:42;166.23;;;51.08;;
23586;SDS011;11971;51.148;4.104;2023-09-08T14:16:10;163.65;;;50.15;;
23586;SDS011;11971;51.148;4.104;2023-09-08T14:18:37;172.32;;;50.83;;
23586;SDS011;11971;51.148;4.104;2023-09-08T14:21:04;164.98;;;50.78;;
23586;SDS011;11971;51.148;4.104;2023-09-08T14:23:31;164.90;;;50.83;;
23586;SDS011;11971;51.148;4.104;2023-09-08T14:25:59;160.98;;;50.13;;
23586;SDS011;11971;51.148;4.104;2023-09-08T14:28:26;164.15;;;50.40;;